Time;durP1;ratioP1;P1;durP2;ratioP2;P2;SDS_P1;SDS_P2;PMS_P1;PMS_P2;Temp;Humidity;BMP_temperature;BMP_pressure;BME280_temperature;BME280_humidity;BME280_pressure;Samples;Min_cycle;Max_cycle;Signal;HPM_P1;HPM_P2
2022/07/12 00:00:28;;;;;;;2.38;2.28;;;;;;;;;;5076333;28;20316;-84
2022/07/12 00:02:57;;;;;;;1.80;1.70;;;;;;;;;;5077817;28;20731;-82
2022/07/12 00:05:25;;;;;;;2.30;2.20;;;;;;;;;;5080434;28;20262;-84
2022/07/12 00:07:52;;;;;;;2.10;2.00;;;;;;;;;;5080421;28;20236;-83
2022/07/12 00:10:20;;;;;;;2.03;1.92;;;;;;;;;;5079384;28;20765;-83
2022/07/12 00:12:47;;;;;;;1.80;1.70;;;;;;;;;;5079603;28;20205;-83
2022/07/12 00:15:15;;;;;;;1.70;1.60;;;;;;;;;;5079794;28;20201;-83
2022/07/12 00:17:43;;;;;;;2.00;1.90;;;;;;;;;;5090892;28;20260;-83
2022/07/12 00:20:13;;;;;;;2.75;2.08;;;;;;;;;;5100203;28;20259;-82
2022/07/12 00:22:40;;;;;;;2.22;2.13;;;;;;;;;;5100437;28;20247;-83
2022/07/12 00:25:09;;;;;;;1.80;1.70;;;;;;;;;;5100018;28;20238;-84
2022/07/12 00:27:36;;;;;;;2.75;1.92;;;;;;;;;;5099084;28;20299;-83
2022/07/12 00:30:06;;;;;;;2.28;2.08;;;;;;;;;;5099309;28;20307;-84
2022/07/12 00:32:33;;;;;;;1.67;1.58;;;;;;;;;;5099548;28;20284;-84
2022/07/12 00:35:02;;;;;;;1.77;1.67;;;;;;;;;;5099062;28;20291;-83
2022/07/12 00:37:31;;;;;;;1.98;1.88;;;;;;;;;;5099964;28;20688;-83
2022/07/12 00:39:59;;;;;;;1.75;1.65;;;;;;;;;;5100053;28;20288;-84
2022/07/12 00:42:26;;;;;;;1.65;1.55;;;;;;;;;;5099531;28;20196;-84
2022/07/12 00:44:54;;;;;;;2.00;1.90;;;;;;;;;;5099336;28;20224;-84
2022/07/12 00:47:36;;;;;;;1.70;1.60;;;;;;;;;;5091458;28;20284;-83
2022/07/12 00:50:06;;;;;;;3.03;2.28;;;;;;;;;;5079143;28;20267;-84
2022/07/12 00:52:37;;;;;;;1.77;1.67;;;;;;;;;;5079040;28;20217;-83
2022/07/12 00:55:05;;;;;;;2.03;1.90;;;;;;;;;;5078900;28;20641;-83
2022/07/12 00:57:34;;;;;;;1.80;1.70;;;;;;;;;;5078708;28;20308;-83
2022/07/12 01:00:03;;;;;;;2.17;2.05;;;;;;;;;;5078757;28;20300;-83
2022/07/12 01:02:31;;;;;;;1.98;1.60;;;;;;;;;;5079067;28;20232;-83
2022/07/12 01:04:58;;;;;;;2.40;2.20;;;;;;;;;;5079529;28;20694;-83
2022/07/12 01:07:27;;;;;;;1.90;1.80;;;;;;;;;;5079081;28;20288;-83
2022/07/12 01:09:56;;;;;;;2.28;2.10;;;;;;;;;;5078778;28;20267;-83
2022/07/12 01:12:25;;;;;;;2.25;2.15;;;;;;;;;;5078686;28;20260;-84
2022/07/12 01:14:53;;;;;;;2.22;2.03;;;;;;;;;;5078909;28;20207;-83
2022/07/12 01:17:22;;;;;;;2.20;2.00;;;;;;;;;;5086622;28;20311;-83
2022/07/12 01:19:50;;;;;;;2.42;2.22;;;;;;;;;;5099178;28;20303;-83
2022/07/12 01:22:19;;;;;;;2.67;2.47;;;;;;;;;;5098581;28;20204;-83
2022/07/12 01:24:48;;;;;;;2.83;2.40;;;;;;;;;;5098831;28;20200;-83
2022/07/12 01:27:15;;;;;;;2.97;2.78;;;;;;;;;;5099513;28;20246;-83
2022/07/12 01:29:43;;;;;;;2.20;2.10;;;;;;;;;;5098755;28;20255;-82
2022/07/12 01:35:03;;;;;;;2.60;2.40;;;;;;;;;;5082966;28;20232;-83
2022/07/12 01:37:34;;;;;;;2.10;2.00;;;;;;;;;;5098050;28;20289;-83
2022/07/12 01:40:06;;;;;;;3.53;2.72;;;;;;;;;;5097236;28;20308;-83
2022/07/12 01:42:33;;;;;;;4.22;2.42;;;;;;;;;;5098317;28;20684;-83
2022/07/12 01:45:01;;;;;;;2.45;2.25;;;;;;;;;;5098301;28;20302;-83
2022/07/12 01:47:32;;;;;;;2.70;2.50;;;;;;;;;;5089297;28;20231;-83
2022/07/12 01:50:00;;;;;;;2.95;2.75;;;;;;;;;;5078787;28;20568;-83
2022/07/12 01:52:27;;;;;;;2.60;2.40;;;;;;;;;;5078073;28;20292;-83
2022/07/12 01:54:55;;;;;;;2.80;2.60;;;;;;;;;;5078497;28;20192;-84
2022/07/12 01:57:25;;;;;;;2.92;2.65;;;;;;;;;;5077527;28;20244;-83
2022/07/12 01:59:53;;;;;;;2.95;2.75;;;;;;;;;;5078355;28;20319;-83
2022/07/12 02:02:20;;;;;;;2.90;2.70;;;;;;;;;;5078769;28;20201;-83
2022/07/12 02:04:48;;;;;;;2.40;2.20;;;;;;;;;;5077512;28;20264;-83
2022/07/12 02:07:16;;;;;;;2.20;2.10;;;;;;;;;;5077770;28;20312;-83
2022/07/12 02:09:43;;;;;;;2.65;2.45;;;;;;;;;;5077608;28;20316;-83
2022/07/12 02:12:11;;;;;;;2.53;2.33;;;;;;;;;;5076961;28;20287;-84
2022/07/12 02:14:40;;;;;;;2.70;2.50;;;;;;;;;;5077162;28;20236;-83
2022/07/12 02:17:07;;;;;;;2.42;2.33;;;;;;;;;;5077990;28;20629;-83
2022/07/12 02:19:35;;;;;;;2.40;2.20;;;;;;;;;;5077029;28;20307;-83
2022/07/12 02:22:03;;;;;;;2.35;2.15;;;;;;;;;;5076683;28;20280;-84
2022/07/12 02:24:30;;;;;;;3.25;2.30;;;;;;;;;;5077727;28;20668;-82
2022/07/12 02:26:58;;;;;;;2.20;2.10;;;;;;;;;;5076305;28;20235;-83
2022/07/12 02:29:25;;;;;;;2.80;2.60;;;;;;;;;;5077358;28;20725;-82
2022/07/12 02:31:54;;;;;;;2.38;2.28;;;;;;;;;;5077179;28;20205;-83
2022/07/12 02:34:22;;;;;;;3.05;2.05;;;;;;;;;;5077146;28;20236;-83
2022/07/12 02:36:49;;;;;;;1.80;1.70;;;;;;;;;;5077275;28;20571;-83
2022/07/12 02:39:17;;;;;;;2.17;1.98;;;;;;;;;;5076591;28;20629;-83
2022/07/12 02:41:44;;;;;;;2.35;2.15;;;;;;;;;;5077076;28;20287;-83
2022/07/12 02:44:13;;;;;;;1.70;1.60;;;;;;;;;;5076833;28;20248;-83
2022/07/12 02:46:40;;;;;;;1.38;1.27;;;;;;;;;;5079611;28;20193;-83
2022/07/12 02:49:09;;;;;;;1.20;1.20;;;;;;;;;;5097264;28;20299;-83
2022/07/12 02:51:37;;;;;;;1.23;1.13;;;;;;;;;;5097239;28;20295;-83
2022/07/12 02:54:04;;;;;;;0.98;0.98;;;;;;;;;;5097349;28;20234;-83
2022/07/12 02:56:32;;;;;;;1.48;1.30;;;;;;;;;;5097211;28;20272;-83
2022/07/12 02:58:59;;;;;;;1.45;1.35;;;;;;;;;;5097120;28;20311;-83
2022/07/12 03:01:27;;;;;;;1.38;1.27;;;;;;;;;;5096591;28;20232;-82
2022/07/12 03:03:54;;;;;;;1.30;1.30;;;;;;;;;;5096400;28;20267;-83
2022/07/12 03:06:23;;;;;;;1.38;1.27;;;;;;;;;;5096469;28;20292;-83
2022/07/12 03:08:51;;;;;;;1.67;1.58;;;;;;;;;;5096776;28;20665;-83
2022/07/12 03:11:18;;;;;;;1.50;1.40;;;;;;;;;;5096798;28;20203;-83
2022/07/12 03:13:46;;;;;;;1.77;1.67;;;;;;;;;;5096616;28;20291;-83
2022/07/12 03:16:14;;;;;;;2.80;2.60;;;;;;;;;;5098279;28;20283;-82
2022/07/12 03:18:43;;;;;;;1.63;1.52;;;;;;;;;;5079789;28;20224;-82
2022/07/12 03:21:11;;;;;;;1.60;1.50;;;;;;;;;;5078449;28;20201;-82
2022/07/12 03:23:40;;;;;;;2.00;1.90;;;;;;;;;;5078151;28;20208;-82
2022/07/12 03:26:08;;;;;;;1.40;1.35;;;;;;;;;;5078206;28;20204;-82
2022/07/12 03:28:36;;;;;;;2.38;2.17;;;;;;;;;;5078275;28;20227;-82
2022/07/12 03:31:03;;;;;;;1.50;1.40;;;;;;;;;;5078732;28;20265;-82
2022/07/12 03:33:31;;;;;;;1.38;1.35;;;;;;;;;;5078008;28;20235;-82
2022/07/12 03:35:59;;;;;;;1.92;1.83;;;;;;;;;;5078841;28;20262;-81
2022/07/12 03:38:27;;;;;;;1.90;1.80;;;;;;;;;;5082469;28;20208;-82
2022/07/12 03:40:56;;;;;;;1.90;1.80;;;;;;;;;;5082667;28;20291;-81
2022/07/12 03:43:24;;;;;;;1.60;1.50;;;;;;;;;;5082306;28;20236;-82
2022/07/12 03:45:51;;;;;;;1.48;1.38;;;;;;;;;;5083177;28;20562;-81
2022/07/12 03:48:18;;;;;;;2.00;1.90;;;;;;;;;;5081941;28;20232;-82
2022/07/12 03:50:46;;;;;;;2.08;1.98;;;;;;;;;;5081790;28;20236;-81
2022/07/12 03:53:14;;;;;;;2.45;2.28;;;;;;;;;;5080727;28;20211;-82
2022/07/12 03:55:41;;;;;;;2.00;1.90;;;;;;;;;;5082077;28;20236;-81
2022/07/12 03:58:09;;;;;;;1.88;1.77;;;;;;;;;;5080660;28;20292;-82
2022/07/12 04:00:37;;;;;;;1.92;1.83;;;;;;;;;;5081113;28;20316;-81
2022/07/12 04:03:05;;;;;;;2.25;2.15;;;;;;;;;;5081432;28;20215;-82
2022/07/12 04:05:33;;;;;;;2.00;1.90;;;;;;;;;;5081327;28;20201;-81
2022/07/12 04:08:01;;;;;;;2.30;2.10;;;;;;;;;;5081662;28;20236;-82
2022/07/12 04:10:29;;;;;;;2.17;2.08;;;;;;;;;;5081192;28;20221;-82
2022/07/12 04:12:57;;;;;;;2.58;2.42;;;;;;;;;;5081165;28;20235;-82
2022/07/12 04:15:26;;;;;;;1.73;1.63;;;;;;;;;;5081324;28;20288;-82
2022/07/12 04:17:53;;;;;;;2.47;2.28;;;;;;;;;;5080654;28;20205;-82
2022/07/12 04:20:21;;;;;;;2.13;1.98;;;;;;;;;;5080773;28;20224;-82
2022/07/12 04:22:48;;;;;;;2.53;2.33;;;;;;;;;;5081094;28;20244;-82
2022/07/12 04:25:16;;;;;;;2.33;2.22;;;;;;;;;;5082076;28;20243;-82
2022/07/12 04:27:43;;;;;;;2.17;2.03;;;;;;;;;;5082228;28;20232;-82
2022/07/12 04:30:12;;;;;;;2.40;2.20;;;;;;;;;;5081519;28;20726;-82
2022/07/12 04:32:40;;;;;;;1.58;1.48;;;;;;;;;;5081532;28;20205;-82
2022/07/12 04:35:09;;;;;;;2.30;2.10;;;;;;;;;;5083664;28;20208;-82
2022/07/12 04:37:36;;;;;;;1.60;1.50;;;;;;;;;;5082870;28;20688;-82
2022/07/12 04:40:05;;;;;;;2.00;1.90;;;;;;;;;;5082654;28;20260;-82
2022/07/12 04:42:32;;;;;;;3.05;2.55;;;;;;;;;;5084289;28;20697;-81
2022/07/12 04:45:00;;;;;;;2.20;2.10;;;;;;;;;;5082373;28;20197;-82
2022/07/12 04:47:27;;;;;;;2.40;2.20;;;;;;;;;;5090387;28;20258;-82
2022/07/12 04:49:57;;;;;;;2.53;2.40;;;;;;;;;;5100721;28;20220;-81
2022/07/12 04:52:24;;;;;;;3.13;2.83;;;;;;;;;;5100939;28;20238;-83
2022/07/12 04:54:52;;;;;;;2.90;2.70;;;;;;;;;;5102968;28;20566;-83
2022/07/12 04:57:19;;;;;;;2.78;2.58;;;;;;;;;;5099395;28;20224;-82
2022/07/12 04:59:47;;;;;;;2.97;2.42;;;;;;;;;;5100390;28;20271;-82
2022/07/12 05:02:15;;;;;;;3.20;2.67;;;;;;;;;;5100909;28;20272;-82
2022/07/12 05:04:42;;;;;;;3.00;2.80;;;;;;;;;;5101087;28;20208;-82
2022/07/12 05:07:11;;;;;;;3.20;3.00;;;;;;;;;;5101916;28;20228;-82
2022/07/12 05:09:39;;;;;;;3.35;2.72;;;;;;;;;;5100292;28;20223;-82
2022/07/12 05:12:07;;;;;;;3.28;3.08;;;;;;;;;;5100417;28;20239;-82
2022/07/12 05:14:35;;;;;;;4.65;2.70;;;;;;;;;;5100179;28;20257;-82
2022/07/12 05:17:03;;;;;;;2.83;2.63;;;;;;;;;;5095055;28;20677;-83
2022/07/12 05:19:30;;;;;;;1.77;1.67;;;;;;;;;;5079515;28;20252;-83
2022/07/12 05:21:58;;;;;;;2.58;2.38;;;;;;;;;;5079324;28;20215;-82
2022/07/12 05:24:27;;;;;;;2.72;2.35;;;;;;;;;;5080049;28;20680;-82
2022/07/12 05:26:55;;;;;;;2.78;2.58;;;;;;;;;;5079422;28;20204;-83
2022/07/12 05:29:23;;;;;;;2.85;2.65;;;;;;;;;;5080680;28;20239;-83
2022/07/12 05:31:50;;;;;;;2.35;2.15;;;;;;;;;;5080320;28;20232;-82
2022/07/12 05:34:18;;;;;;;2.45;2.28;;;;;;;;;;5080469;28;20670;-82
2022/07/12 05:36:45;;;;;;;3.45;3.00;;;;;;;;;;5079770;28;20233;-82
2022/07/12 05:39:13;;;;;;;3.58;3.28;;;;;;;;;;5078308;28;20263;-82
2022/07/12 05:41:42;;;;;;;2.50;2.30;;;;;;;;;;5078246;28;20307;-82
2022/07/12 05:44:09;;;;;;;2.65;2.45;;;;;;;;;;5078224;28;20224;-83
2022/07/12 05:46:37;;;;;;;2.85;2.65;;;;;;;;;;5080307;28;20200;-83
2022/07/12 05:49:05;;;;;;;2.17;2.08;;;;;;;;;;5092571;28;20224;-83
2022/07/12 05:54:17;;;;;;;1.80;1.70;;;;;;;;;;5100904;28;20242;-83
2022/07/12 05:56:46;;;;;;;2.05;1.95;;;;;;;;;;5101170;28;20639;-83
2022/07/12 05:59:14;;;;;;;1.95;1.85;;;;;;;;;;5101220;28;20255;-83
2022/07/12 06:01:41;;;;;;;4.45;2.95;;;;;;;;;;5095118;28;20280;-83
2022/07/12 06:04:09;;;;;;;2.03;1.92;;;;;;;;;;5091185;28;20197;-83
2022/07/12 06:06:37;;;;;;;2.50;2.40;;;;;;;;;;5100311;28;20196;-83
2022/07/12 06:09:04;;;;;;;3.20;2.90;;;;;;;;;;5086116;28;20248;-83
2022/07/12 06:11:33;;;;;;;2.42;2.30;;;;;;;;;;5078759;28;20247;-83
2022/07/12 06:14:02;;;;;;;2.25;2.15;;;;;;;;;;5082227;28;20197;-83
2022/07/12 06:16:30;;;;;;;1.65;1.55;;;;;;;;;;5081781;28;20224;-83
2022/07/12 06:18:57;;;;;;;1.95;1.83;;;;;;;;;;5080645;28;20241;-83
2022/07/12 06:21:25;;;;;;;1.50;1.40;;;;;;;;;;5080362;28;20240;-83
2022/07/12 06:23:53;;;;;;;1.85;1.75;;;;;;;;;;5095431;28;20206;-83
2022/07/12 06:26:20;;;;;;;3.78;3.35;;;;;;;;;;5098505;28;20254;-83
2022/07/12 06:28:48;;;;;;;2.53;2.42;;;;;;;;;;5100371;28;20258;-83
2022/07/12 06:31:17;;;;;;;2.10;1.90;;;;;;;;;;5100931;28;20232;-83
2022/07/12 06:33:44;;;;;;;3.40;3.10;;;;;;;;;;5101279;28;20595;-83
2022/07/12 06:36:12;;;;;;;3.45;3.00;;;;;;;;;;5082001;28;20236;-83
2022/07/12 06:38:39;;;;;;;3.42;3.13;;;;;;;;;;5080937;28;20639;-83
2022/07/12 06:41:07;;;;;;;3.30;3.10;;;;;;;;;;5081193;28;20252;-84
2022/07/12 06:43:34;;;;;;;2.53;2.33;;;;;;;;;;5101035;28;20222;-84
2022/07/12 06:46:02;;;;;;;2.40;2.20;;;;;;;;;;5101172;28;20236;-84
2022/07/12 06:48:31;;;;;;;1.90;1.80;;;;;;;;;;5083944;28;20244;-84
2022/07/12 06:50:58;;;;;;;3.20;3.00;;;;;;;;;;5080582;28;20231;-84
2022/07/12 06:53:26;;;;;;;3.80;3.58;;;;;;;;;;5078214;28;20296;-83
2022/07/12 06:55:53;;;;;;;2.15;2.05;;;;;;;;;;5079193;28;20204;-84
2022/07/12 06:58:21;;;;;;;2.55;2.35;;;;;;;;;;5077287;28;20288;-83
2022/07/12 07:00:49;;;;;;;3.33;2.63;;;;;;;;;;5075133;28;20221;-84
2022/07/12 07:03:16;;;;;;;2.88;2.67;;;;;;;;;;5077748;28;20201;-84
2022/07/12 07:05:45;;;;;;;2.10;2.00;;;;;;;;;;5078438;28;20638;-84
2022/07/12 07:08:12;;;;;;;1.55;1.52;;;;;;;;;;5077421;28;20623;-84
2022/07/12 07:10:40;;;;;;;1.70;1.60;;;;;;;;;;5076704;28;20243;-83
2022/07/12 07:13:10;;;;;;;1.65;1.55;;;;;;;;;;5075957;28;20712;-83
2022/07/12 07:15:39;;;;;;;1.80;1.70;;;;;;;;;;5075957;28;20205;-83
2022/07/12 07:18:07;;;;;;;1.73;1.63;;;;;;;;;;5075163;28;20235;-83
2022/07/12 07:20:35;;;;;;;2.05;1.95;;;;;;;;;;5076167;28;20213;-83
2022/07/12 07:23:04;;;;;;;2.22;2.03;;;;;;;;;;5073828;28;20273;-84
2022/07/12 07:25:31;;;;;;;1.15;1.15;;;;;;;;;;5074255;28;20240;-84
2022/07/12 07:27:59;;;;;;;1.25;1.15;;;;;;;;;;5074975;28;20208;-83
2022/07/12 07:33:12;;;;;;;0.93;0.93;;;;;;;;;;5075972;28;20186;-83
2022/07/12 07:35:39;;;;;;;0.80;0.80;;;;;;;;;;5074824;28;20216;-83
2022/07/12 07:38:09;;;;;;;0.80;0.80;;;;;;;;;;5074713;28;20224;-83
2022/07/12 07:40:37;;;;;;;0.90;0.90;;;;;;;;;;5073879;28;20213;-83
2022/07/12 07:43:04;;;;;;;1.10;1.10;;;;;;;;;;5075172;28;20308;-84
2022/07/12 07:45:32;;;;;;;0.90;0.90;;;;;;;;;;5075310;28;20212;-84
2022/07/12 07:48:00;;;;;;;0.75;0.75;;;;;;;;;;5074980;28;20231;-83
2022/07/12 07:50:28;;;;;;;0.90;0.90;;;;;;;;;;5073895;28;20303;-84
2022/07/12 07:52:55;;;;;;;1.05;1.05;;;;;;;;;;5073574;28;20251;-84
2022/07/12 07:55:24;;;;;;;0.73;0.73;;;;;;;;;;5073639;28;20280;-84
2022/07/12 07:57:52;;;;;;;0.77;0.77;;;;;;;;;;5073217;28;20288;-84
2022/07/12 08:00:19;;;;;;;0.82;0.82;;;;;;;;;;5075067;28;20312;-84
2022/07/12 08:02:47;;;;;;;0.70;0.70;;;;;;;;;;5074761;28;20312;-85
2022/07/12 08:05:14;;;;;;;0.77;0.77;;;;;;;;;;5077612;28;20236;-83
2022/07/12 08:07:42;;;;;;;1.90;1.30;;;;;;;;;;5073452;28;20239;-84
2022/07/12 08:10:10;;;;;;;0.80;0.80;;;;;;;;;;5072601;28;20278;-84
2022/07/12 08:12:39;;;;;;;0.70;0.70;;;;;;;;;;5071993;28;20232;-84
2022/07/12 08:15:08;;;;;;;0.90;0.90;;;;;;;;;;5072484;28;20287;-84
2022/07/12 08:17:36;;;;;;;0.82;0.82;;;;;;;;;;5081088;28;20288;-84
2022/07/12 08:20:05;;;;;;;0.80;0.80;;;;;;;;;;5072254;28;20697;-84
2022/07/12 08:22:33;;;;;;;0.90;0.90;;;;;;;;;;5071045;28;20307;-85
2022/07/12 08:25:00;;;;;;;0.90;0.85;;;;;;;;;;5075777;28;20201;-86
2022/07/12 08:27:28;;;;;;;1.08;1.08;;;;;;;;;;5075181;28;20298;-86
2022/07/12 08:29:57;;;;;;;0.85;0.85;;;;;;;;;;5075133;28;20232;-84
2022/07/12 08:32:24;;;;;;;0.73;0.73;;;;;;;;;;5074753;28;20304;-86
2022/07/12 08:34:52;;;;;;;0.70;0.70;;;;;;;;;;5074881;28;20247;-85
2022/07/12 08:37:19;;;;;;;1.00;1.00;;;;;;;;;;5074608;28;20287;-87
2022/07/12 08:39:47;;;;;;;0.80;0.80;;;;;;;;;;5074414;28;20579;-87
2022/07/12 08:42:18;;;;;;;0.90;0.90;;;;;;;;;;5074404;28;20772;-87
2022/07/12 08:44:46;;;;;;;0.95;0.95;;;;;;;;;;5075044;28;20661;-87
2022/07/12 08:47:15;;;;;;;0.60;0.60;;;;;;;;;;5092687;28;20291;-87
2022/07/12 08:50:14;;;;;;;0.80;0.80;;;;;;;;;;5076503;28;20303;-87
2022/07/12 08:52:43;;;;;;;3.72;0.90;;;;;;;;;;5074414;28;20197;-87
2022/07/12 08:55:22;;;;;;;1.10;1.00;;;;;;;;;;5075093;28;20636;-87
2022/07/12 08:57:51;;;;;;;0.85;0.85;;;;;;;;;;5075001;28;20189;-87
2022/07/12 09:00:19;;;;;;;0.82;0.82;;;;;;;;;;5075131;28;20229;-87
2022/07/12 09:02:52;;;;;;;1.00;1.00;;;;;;;;;;5074205;28;20220;-87
2022/07/12 09:05:22;;;;;;;0.70;0.70;;;;;;;;;;5074337;28;20186;-87
2022/07/12 09:07:50;;;;;;;0.80;0.80;;;;;;;;;;5074641;28;20292;-87
2022/07/12 09:10:18;;;;;;;0.90;0.90;;;;;;;;;;5074417;28;20552;-87
2022/07/12 09:12:46;;;;;;;1.15;1.00;;;;;;;;;;5091311;28;20267;-88
2022/07/12 09:15:17;;;;;;;0.90;0.90;;;;;;;;;;5116299;22;20639;-80
2022/07/12 09:17:58;;;;;;;0.90;0.90;;;;;;;;;;5057113;28;20210;-81
2022/07/12 09:20:28;;;;;;;1.27;1.00;;;;;;;;;;5055712;28;20293;-81
2022/07/12 09:23:00;;;;;;;0.95;0.95;;;;;;;;;;5056335;28;20661;-81
2022/07/12 09:25:28;;;;;;;0.70;0.70;;;;;;;;;;5057835;28;20261;-81
2022/07/12 09:27:57;;;;;;;0.80;0.80;;;;;;;;;;5058442;28;20220;-81
2022/07/12 09:30:27;;;;;;;0.70;0.70;;;;;;;;;;5058639;28;20265;-80
2022/07/12 09:36:08;;;;;;;0.60;0.60;;;;;;;;;;5057681;28;20301;-81
2022/07/12 09:38:37;;;;;;;0.80;0.80;;;;;;;;;;5047230;28;20201;-81
2022/07/12 09:41:05;;;;;;;0.98;0.98;;;;;;;;;;5048677;28;20646;-81
2022/07/12 09:43:33;;;;;;;0.98;0.98;;;;;;;;;;5055281;28;20283;-81
2022/07/12 09:46:01;;;;;;;0.75;0.75;;;;;;;;;;5057575;28;20245;-81
2022/07/12 09:48:30;;;;;;;0.77;0.77;;;;;;;;;;5056495;28;20290;-81
2022/07/12 09:50:59;;;;;;;1.10;1.10;;;;;;;;;;5058131;28;20653;-82
2022/07/12 09:53:33;;;;;;;0.90;0.90;;;;;;;;;;5057265;28;20237;-81
2022/07/12 09:56:05;;;;;;;1.10;1.05;;;;;;;;;;5057463;28;20229;-81
2022/07/12 09:58:37;;;;;;;1.00;1.00;;;;;;;;;;5056509;28;20190;-81
2022/07/12 10:01:06;;;;;;;1.55;0.90;;;;;;;;;;5037666;28;20714;-81
2022/07/12 10:03:37;;;;;;;0.80;0.80;;;;;;;;;;5037073;28;20268;-81
2022/07/12 10:06:05;;;;;;;0.93;0.93;;;;;;;;;;5037548;28;20261;-80
2022/07/12 10:08:32;;;;;;;0.77;0.77;;;;;;;;;;5037526;28;20202;-81
2022/07/12 10:11:00;;;;;;;0.80;0.80;;;;;;;;;;5055510;28;20281;-82
2022/07/12 10:13:30;;;;;;;0.70;0.70;;;;;;;;;;5057087;28;20232;-82
2022/07/12 10:16:03;;;;;;;0.68;0.68;;;;;;;;;;5056117;28;20275;-83
2022/07/12 10:18:31;;;;;;;10.43;2.38;;;;;;;;;;5056331;28;20233;-83
2022/07/12 10:21:00;;;;;;;0.73;0.73;;;;;;;;;;5056167;28;20204;-83
2022/07/12 10:23:36;;;;;;;1.10;1.10;;;;;;;;;;5056074;28;20312;-83
2022/07/12 10:26:39;;;;;;;0.70;0.70;;;;;;;;;;5057255;28;20758;-83
2022/07/12 10:29:09;;;;;;;0.80;0.80;;;;;;;;;;5057809;28;20232;-82
2022/07/12 10:31:38;;;;;;;0.70;0.70;;;;;;;;;;5057680;28;20283;-82
2022/07/12 10:34:21;;;;;;;0.80;0.80;;;;;;;;;;5056749;28;20248;-83
2022/07/12 10:37:23;;;;;;;0.70;0.70;;;;;;;;;;5057393;28;20697;-82
2022/07/12 10:40:13;;;;;;;0.90;0.90;;;;;;;;;;5049690;28;20197;-82
2022/07/12 10:42:41;;;;;;;0.70;0.70;;;;;;;;;;5038324;28;20232;-82
2022/07/12 10:45:15;;;;;;;0.50;0.50;;;;;;;;;;5038859;28;20234;-82
2022/07/12 10:47:56;;;;;;;0.70;0.70;;;;;;;;;;5038621;28;20699;-82
2022/07/12 10:51:01;;;;;;;1.20;1.10;;;;;;;;;;5057392;28;20630;-81
2022/07/12 10:53:33;;;;;;;0.77;0.77;;;;;;;;;;5056180;28;20561;-81
2022/07/12 10:56:17;;;;;;;0.65;0.65;;;;;;;;;;5056228;28;20227;-83
2022/07/12 10:58:47;;;;;;;0.82;0.82;;;;;;;;;;5055969;28;20201;-82
2022/07/12 11:01:17;;;;;;;1.08;0.80;;;;;;;;;;5056970;28;20292;-82
2022/07/12 11:03:47;;;;;;;0.70;0.70;;;;;;;;;;5056043;28;20670;-81
2022/07/12 11:06:16;;;;;;;0.77;0.77;;;;;;;;;;5055558;28;20687;-81
2022/07/12 11:08:57;;;;;;;0.75;0.75;;;;;;;;;;5057775;28;20232;-82
2022/07/12 11:11:27;;;;;;;0.60;0.60;;;;;;;;;;5043019;28;20263;-82
2022/07/12 11:13:56;;;;;;;0.80;0.80;;;;;;;;;;5056026;28;20197;-83
2022/07/12 11:16:24;;;;;;;0.63;0.63;;;;;;;;;;5056613;28;20311;-82
2022/07/12 11:18:52;;;;;;;0.98;0.98;;;;;;;;;;5055859;28;20216;-83
2022/07/12 11:21:21;;;;;;;0.70;0.70;;;;;;;;;;5058615;28;20236;-83
2022/07/12 11:23:48;;;;;;;0.60;0.60;;;;;;;;;;5056038;28;20635;-82
2022/07/12 11:26:18;;;;;;;0.73;0.55;;;;;;;;;;5057782;28;20221;-83
2022/07/12 11:28:48;;;;;;;0.57;0.57;;;;;;;;;;5058106;28;20233;-82
2022/07/12 11:31:17;;;;;;;0.90;0.90;;;;;;;;;;5057750;28;20739;-82
2022/07/12 11:33:46;;;;;;;0.63;0.63;;;;;;;;;;5058048;28;20289;-82
2022/07/12 11:36:15;;;;;;;0.80;0.80;;;;;;;;;;5057425;28;20701;-82
2022/07/12 11:38:44;;;;;;;0.60;0.60;;;;;;;;;;5056524;28;20236;-82
2022/07/12 11:41:13;;;;;;;0.73;0.73;;;;;;;;;;5057169;28;20731;-82
2022/07/12 11:43:42;;;;;;;0.90;0.90;;;;;;;;;;5056161;28;20308;-83
2022/07/12 11:46:11;;;;;;;0.90;0.80;;;;;;;;;;5056742;28;20257;-82
2022/07/12 11:48:39;;;;;;;0.80;0.80;;;;;;;;;;5056841;28;20269;-82
2022/07/12 11:51:09;;;;;;;1.00;1.00;;;;;;;;;;5056833;28;20232;-82
2022/07/12 11:53:38;;;;;;;0.80;0.80;;;;;;;;;;5057066;28;20284;-81
2022/07/12 11:56:08;;;;;;;0.60;0.60;;;;;;;;;;5055583;28;20221;-83
2022/07/12 11:58:38;;;;;;;0.70;0.70;;;;;;;;;;5061062;28;20240;-82
2022/07/12 12:01:12;;;;;;;0.52;0.52;;;;;;;;;;5061536;28;20208;-82
2022/07/12 12:03:46;;;;;;;0.88;0.50;;;;;;;;;;5049811;28;20229;-82
2022/07/12 12:06:14;;;;;;;0.70;0.70;;;;;;;;;;5057299;28;20281;-82
2022/07/12 12:08:42;;;;;;;0.80;0.80;;;;;;;;;;5062489;28;20229;-83
2022/07/12 12:11:09;;;;;;;0.70;0.70;;;;;;;;;;5041003;28;20241;-83
2022/07/12 12:13:37;;;;;;;0.90;0.68;;;;;;;;;;5040893;28;20238;-82
2022/07/12 12:16:07;;;;;;;0.70;0.70;;;;;;;;;;5039148;28;20257;-81
2022/07/12 12:18:37;;;;;;;0.68;0.68;;;;;;;;;;5040730;28;20230;-83
2022/07/12 12:21:07;;;;;;;0.75;0.75;;;;;;;;;;5046969;28;20651;-83
2022/07/12 12:23:35;;;;;;;0.70;0.70;;;;;;;;;;5058674;28;20204;-83
2022/07/12 12:26:15;;;;;;;0.80;0.80;;;;;;;;;;5060898;28;20667;-83
2022/07/12 12:28:47;;;;;;;0.70;0.70;;;;;;;;;;5061092;28;20594;-82
2022/07/12 12:31:18;;;;;;;0.50;0.50;;;;;;;;;;5061788;28;20244;-82
2022/07/12 12:33:47;;;;;;;0.60;0.60;;;;;;;;;;5060333;28;20233;-82
2022/07/12 12:36:21;;;;;;;0.80;0.80;;;;;;;;;;5059951;28;20248;-83
2022/07/12 12:38:50;;;;;;;0.60;0.60;;;;;;;;;;5058312;28;20575;-83
2022/07/12 12:41:21;;;;;;;0.60;0.60;;;;;;;;;;5059874;28;20205;-83
2022/07/12 12:43:57;;;;;;;0.75;0.75;;;;;;;;;;5059868;28;20255;-83
2022/07/12 12:46:47;;;;;;;0.70;0.70;;;;;;;;;;5061797;28;20563;-83
2022/07/12 12:49:15;;;;;;;0.70;0.70;;;;;;;;;;5060661;28;20229;-82
2022/07/12 12:51:55;;;;;;;0.85;0.85;;;;;;;;;;5060242;28;20202;-82
2022/07/12 12:54:36;;;;;;;0.80;0.80;;;;;;;;;;5061361;28;20229;-82
2022/07/12 12:57:05;;;;;;;0.60;0.60;;;;;;;;;;5059057;28;20228;-82
2022/07/12 12:59:33;;;;;;;0.63;0.63;;;;;;;;;;5060194;28;20332;-82
2022/07/12 13:02:03;;;;;;;0.57;0.57;;;;;;;;;;5057736;28;20208;-82
2022/07/12 13:04:31;;;;;;;0.63;0.63;;;;;;;;;;5038614;28;20433;-82
2022/07/12 13:06:59;;;;;;;0.63;0.63;;;;;;;;;;5039406;28;20226;-82
2022/07/12 13:09:27;;;;;;;0.80;0.80;;;;;;;;;;5039098;28;20237;-82
2022/07/12 13:11:54;;;;;;;0.60;0.60;;;;;;;;;;5037564;28;20386;-81
2022/07/12 13:14:22;;;;;;;0.55;0.55;;;;;;;;;;5039279;28;20640;-82
2022/07/12 13:16:50;;;;;;;0.60;0.60;;;;;;;;;;5037335;28;20725;-81
2022/07/12 13:19:19;;;;;;;0.60;0.60;;;;;;;;;;5037851;28;20293;-82
2022/07/12 13:21:47;;;;;;;0.70;0.70;;;;;;;;;;5037818;28;20714;-82
2022/07/12 13:24:14;;;;;;;0.60;0.60;;;;;;;;;;5037191;28;20237;-82
2022/07/12 13:26:42;;;;;;;0.50;0.50;;;;;;;;;;5038210;28;20729;-82
2022/07/12 13:29:10;;;;;;;0.70;0.70;;;;;;;;;;5039501;28;20268;-82
2022/07/12 13:31:37;;;;;;;0.60;0.60;;;;;;;;;;5038209;28;20202;-82
2022/07/12 13:34:05;;;;;;;0.90;0.90;;;;;;;;;;5054121;28;20213;-82
2022/07/12 13:36:34;;;;;;;0.80;0.80;;;;;;;;;;5057090;28;20262;-81
2022/07/12 13:40:10;;;;;;;1.10;1.00;;;;;;;;;;5054545;28;20292;-81
2022/07/12 13:41:50;;;;;;;0.60;0.60;;;;;;;;;;5037875;28;20249;-82
2022/07/12 13:44:18;;;;;;;1.45;0.70;;;;;;;;;;5038588;28;20670;-82
2022/07/12 13:46:45;;;;;;;0.60;0.60;;;;;;;;;;5037256;28;20297;-82
2022/07/12 13:49:13;;;;;;;0.55;0.55;;;;;;;;;;5037734;28;20316;-82
2022/07/12 13:51:42;;;;;;;0.80;0.80;;;;;;;;;;5036652;28;20682;-82
2022/07/12 13:54:10;;;;;;;0.68;0.68;;;;;;;;;;5037312;28;20746;-81
2022/07/12 13:56:37;;;;;;;0.60;0.60;;;;;;;;;;5037965;28;20305;-82
2022/07/12 13:59:05;;;;;;;0.50;0.50;;;;;;;;;;5037572;28;20289;-82
2022/07/12 14:01:32;;;;;;;0.50;0.50;;;;;;;;;;5039831;28;20285;-81
2022/07/12 14:04:00;;;;;;;0.60;0.60;;;;;;;;;;5037577;28;20639;-82
2022/07/12 14:06:28;;;;;;;0.40;0.40;;;;;;;;;;5037117;28;20226;-81
2022/07/12 14:08:57;;;;;;;0.50;0.50;;;;;;;;;;5045575;28;20194;-81
2022/07/12 14:11:25;;;;;;;0.50;0.50;;;;;;;;;;5037654;28;20288;-81
2022/07/12 14:13:52;;;;;;;0.70;0.70;;;;;;;;;;5036650;28;20244;-81
2022/07/12 14:16:21;;;;;;;0.50;0.50;;;;;;;;;;5038007;28;20646;-81
2022/07/12 14:18:48;;;;;;;0.40;0.40;;;;;;;;;;5037873;28;20206;-82
2022/07/12 14:21:16;;;;;;;0.50;0.50;;;;;;;;;;5036427;28;20264;-81
2022/07/12 14:23:44;;;;;;;1.25;0.70;;;;;;;;;;5036692;28;20206;-83
2022/07/12 14:26:13;;;;;;;0.50;0.50;;;;;;;;;;5038586;28;20233;-82
2022/07/12 14:28:40;;;;;;;0.60;0.60;;;;;;;;;;5036272;28;20262;-82
2022/07/12 14:31:08;;;;;;;0.70;0.70;;;;;;;;;;5037709;28;20229;-81
2022/07/12 14:33:36;;;;;;;0.52;0.40;;;;;;;;;;5050189;28;20205;-81
2022/07/12 14:36:04;;;;;;;0.68;0.68;;;;;;;;;;5056654;28;20653;-81
2022/07/12 14:38:31;;;;;;;0.70;0.70;;;;;;;;;;5057698;28;20201;-82
2022/07/12 14:40:59;;;;;;;0.50;0.50;;;;;;;;;;5038631;28;20667;-81
2022/07/12 14:43:28;;;;;;;0.50;0.50;;;;;;;;;;5037149;28;20241;-81
2022/07/12 14:45:56;;;;;;;0.47;0.47;;;;;;;;;;5037653;28;20385;-82
2022/07/12 14:48:23;;;;;;;0.50;0.50;;;;;;;;;;5036574;28;20210;-81
2022/07/12 14:50:51;;;;;;;0.50;0.50;;;;;;;;;;5036834;28;20206;-82
2022/07/12 14:53:18;;;;;;;0.50;0.50;;;;;;;;;;5035735;28;20274;-81
2022/07/12 14:55:46;;;;;;;0.47;0.47;;;;;;;;;;5037007;28;20256;-81
2022/07/12 14:58:13;;;;;;;0.50;0.50;;;;;;;;;;5036371;28;20229;-83
2022/07/12 15:00:42;;;;;;;0.60;0.60;;;;;;;;;;5037195;28;20241;-80
2022/07/12 15:03:10;;;;;;;0.55;0.55;;;;;;;;;;5044611;28;20292;-83
2022/07/12 15:05:39;;;;;;;0.75;0.65;;;;;;;;;;5055157;28;20408;-83